Time;durP1;ratioP1;P1;durP2;ratioP2;P2;SDS_P1;SDS_P2;PMS_P1;PMS_P2;Temp;Humidity;BMP_temperature;BMP_pressure;BME280_temperature;BME280_humidity;BME280_pressure;Samples;Min_cycle;Max_cycle;Signal;HPM_P1;HPM_P2
2022/07/27 00:01:16;;;;;;;7.65;4.93;;;;;;;;;;5032880;28;20041;-76
2022/07/27 00:03:43;;;;;;;7.00;4.93;;;;;;;;;;5035938;28;20036;-76
2022/07/27 00:06:10;;;;;;;11.05;5.72;;;;;;;;;;5036127;28;20034;-81
2022/07/27 00:08:36;;;;;;;9.73;5.53;;;;;;;;;;5036395;28;20148;-82
2022/07/27 00:11:02;;;;;;;9.23;5.30;;;;;;;;;;5036037;28;20392;-80
2022/07/27 00:13:28;;;;;;;7.18;5.15;;;;;;;;;;5035879;28;20057;-80
2022/07/27 00:15:54;;;;;;;7.38;5.05;;;;;;;;;;5035525;28;20488;-77
2022/07/27 00:18:20;;;;;;;17.27;7.03;;;;;;;;;;5035895;28;20076;-76
2022/07/27 00:20:47;;;;;;;6.57;5.05;;;;;;;;;;5035759;28;20400;-74
2022/07/27 00:23:13;;;;;;;16.95;6.32;;;;;;;;;;5034981;28;20037;-74
2022/07/27 00:25:39;;;;;;;10.73;5.35;;;;;;;;;;5040788;28;20041;-73
2022/07/27 00:28:05;;;;;;;8.05;5.57;;;;;;;;;;5035700;28;20039;-75
2022/07/27 00:30:31;;;;;;;8.18;4.95;;;;;;;;;;5034896;28;20479;-79
2022/07/27 00:32:59;;;;;;;10.35;5.38;;;;;;;;;;5035067;28;20095;-70
2022/07/27 00:35:25;;;;;;;11.00;5.55;;;;;;;;;;5035766;28;20189;-77
2022/07/27 00:37:51;;;;;;;8.95;5.38;;;;;;;;;;5035128;28;20033;-73
2022/07/27 00:40:17;;;;;;;8.18;4.90;;;;;;;;;;5034903;28;20108;-77
2022/07/27 00:42:43;;;;;;;6.78;5.47;;;;;;;;;;5036284;28;20116;-76
2022/07/27 00:45:10;;;;;;;10.70;5.60;;;;;;;;;;5036516;28;20033;-76
2022/07/27 00:47:36;;;;;;;9.02;5.60;;;;;;;;;;5036511;28;20037;-70
2022/07/27 00:50:03;;;;;;;10.68;5.63;;;;;;;;;;5036192;28;20113;-75
2022/07/27 00:52:29;;;;;;;6.63;5.47;;;;;;;;;;5036339;28;20029;-69
2022/07/27 00:54:55;;;;;;;11.00;6.07;;;;;;;;;;5036186;28;20459;-76
2022/07/27 00:57:22;;;;;;;10.05;5.43;;;;;;;;;;5035977;28;20041;-72
2022/07/27 00:59:48;;;;;;;8.73;6.60;;;;;;;;;;5036073;28;20044;-72
2022/07/27 01:02:18;;;;;;;12.43;7.05;;;;;;;;;;5035815;28;20037;-69
2022/07/27 01:04:44;;;;;;;11.15;7.00;;;;;;;;;;5034206;28;20038;-77
2022/07/27 01:07:10;;;;;;;14.43;7.68;;;;;;;;;;5041541;28;20075;-74
2022/07/27 01:12:22;;;;;;;17.52;9.13;;;;;;;;;;5054049;28;20029;-73
2022/07/27 01:14:52;;;;;;;16.23;8.43;;;;;;;;;;5055870;28;20029;-76
2022/07/27 01:17:18;;;;;;;12.02;7.85;;;;;;;;;;5046953;28;20112;-78
2022/07/27 01:19:46;;;;;;;16.00;9.05;;;;;;;;;;5038005;28;20063;-71
2022/07/27 01:22:12;;;;;;;12.50;8.50;;;;;;;;;;5035721;28;20040;-77
2022/07/27 01:24:38;;;;;;;12.70;8.15;;;;;;;;;;5035783;28;20033;-77
2022/07/27 01:27:05;;;;;;;12.57;8.13;;;;;;;;;;5051126;28;20088;-79
2022/07/27 01:29:32;;;;;;;12.15;8.00;;;;;;;;;;5034867;28;20033;-79
2022/07/27 01:31:59;;;;;;;12.63;7.63;;;;;;;;;;5035197;28;20392;-76
2022/07/27 01:34:25;;;;;;;13.52;7.93;;;;;;;;;;5050367;28;20035;-72
2022/07/27 01:36:51;;;;;;;18.27;8.48;;;;;;;;;;5035213;28;20435;-75
2022/07/27 01:39:18;;;;;;;13.85;8.27;;;;;;;;;;5035559;28;20051;-75
2022/07/27 01:41:45;;;;;;;13.02;8.13;;;;;;;;;;5033990;28;20037;-70
2022/07/27 01:44:12;;;;;;;16.65;7.85;;;;;;;;;;5034212;28;20416;-69
2022/07/27 01:46:37;;;;;;;10.27;8.02;;;;;;;;;;5050588;28;20021;-70
2022/07/27 01:49:04;;;;;;;9.50;7.88;;;;;;;;;;5034928;28;20120;-68
2022/07/27 01:51:30;;;;;;;16.10;8.98;;;;;;;;;;5035152;28;20128;-75
2022/07/27 01:53:56;;;;;;;18.27;9.75;;;;;;;;;;5035060;28;20568;-73
2022/07/27 01:56:22;;;;;;;16.95;9.23;;;;;;;;;;5035150;28;20108;-72
2022/07/27 01:58:48;;;;;;;11.07;7.55;;;;;;;;;;5035162;28;20034;-74
2022/07/27 02:01:15;;;;;;;11.98;7.80;;;;;;;;;;5035034;28;20033;-73
2022/07/27 02:03:43;;;;;;;12.90;7.97;;;;;;;;;;5034543;28;20160;-74
2022/07/27 02:06:09;;;;;;;13.18;8.73;;;;;;;;;;5034596;28;20539;-71
2022/07/27 02:08:35;;;;;;;15.55;8.38;;;;;;;;;;5034727;28;20036;-78
2022/07/27 02:13:48;;;;;;;12.68;8.52;;;;;;;;;;5034709;28;20033;-72
2022/07/27 02:16:15;;;;;;;12.95;7.82;;;;;;;;;;5035775;28;20454;-69
2022/07/27 02:18:41;;;;;;;11.70;8.30;;;;;;;;;;5043133;28;20341;-79
2022/07/27 02:21:07;;;;;;;12.50;8.05;;;;;;;;;;5034563;28;20057;-72
2022/07/27 02:23:34;;;;;;;13.68;7.63;;;;;;;;;;5049327;28;20108;-76
2022/07/27 02:26:00;;;;;;;9.70;6.85;;;;;;;;;;5032868;28;20572;-73
2022/07/27 02:28:26;;;;;;;11.75;8.30;;;;;;;;;;5049714;28;20094;-73
2022/07/27 02:30:52;;;;;;;9.45;6.95;;;;;;;;;;5034348;28;20428;-77
2022/07/27 02:33:19;;;;;;;10.00;7.47;;;;;;;;;;5034203;28;20083;-72
2022/07/27 02:35:45;;;;;;;9.70;7.60;;;;;;;;;;5034371;28;20040;-74
2022/07/27 02:38:11;;;;;;;17.00;7.32;;;;;;;;;;5032388;28;20041;-72
2022/07/27 02:40:37;;;;;;;10.38;7.35;;;;;;;;;;5033706;28;20037;-74
2022/07/27 02:43:03;;;;;;;12.95;7.85;;;;;;;;;;5033889;28;20033;-73
2022/07/27 02:45:29;;;;;;;9.38;7.40;;;;;;;;;;5034094;28;20492;-75
2022/07/27 02:47:57;;;;;;;9.52;7.45;;;;;;;;;;5033943;28;20022;-70
2022/07/27 02:50:23;;;;;;;10.02;7.07;;;;;;;;;;5034137;28;20168;-69
2022/07/27 02:52:52;;;;;;;15.05;7.68;;;;;;;;;;5049286;28;20103;-71
2022/07/27 02:55:21;;;;;;;14.25;7.97;;;;;;;;;;5034014;28;20029;-78
2022/07/27 02:57:50;;;;;;;11.40;7.97;;;;;;;;;;5033556;28;20160;-78
2022/07/27 03:00:16;;;;;;;9.95;8.23;;;;;;;;;;5033408;28;20030;-77
2022/07/27 03:02:42;;;;;;;11.90;8.35;;;;;;;;;;5033382;28;20583;-71
2022/07/27 03:05:09;;;;;;;21.60;8.65;;;;;;;;;;5033686;28;20096;-73
2022/07/27 03:07:35;;;;;;;13.18;8.57;;;;;;;;;;5033187;28;20102;-76
2022/07/27 03:10:01;;;;;;;13.02;8.57;;;;;;;;;;5049008;28;20103;-74
2022/07/27 03:12:27;;;;;;;18.55;8.75;;;;;;;;;;5044390;28;20095;-74
2022/07/27 03:14:53;;;;;;;13.57;7.63;;;;;;;;;;5033218;28;20483;-70
2022/07/27 03:17:19;;;;;;;10.43;7.65;;;;;;;;;;5035421;28;20128;-72
2022/07/27 03:19:45;;;;;;;9.52;7.93;;;;;;;;;;5032966;28;20037;-69
2022/07/27 03:22:11;;;;;;;14.38;8.90;;;;;;;;;;5032016;28;20396;-74
2022/07/27 03:24:36;;;;;;;20.05;10.05;;;;;;;;;;5033312;28;20076;-69
2022/07/27 03:27:03;;;;;;;22.52;9.25;;;;;;;;;;5033153;28;20464;-68
2022/07/27 03:29:28;;;;;;;14.93;9.50;;;;;;;;;;5031777;28;20032;-71
2022/07/27 03:31:54;;;;;;;13.02;8.65;;;;;;;;;;5033083;28;20060;-69
2022/07/27 03:34:20;;;;;;;13.32;8.32;;;;;;;;;;5032939;28;20080;-73
2022/07/27 03:36:46;;;;;;;16.38;8.23;;;;;;;;;;5032093;28;20064;-75
2022/07/27 03:39:12;;;;;;;13.57;8.85;;;;;;;;;;5032639;28;20532;-70
2022/07/27 03:41:38;;;;;;;11.73;8.85;;;;;;;;;;5032789;28;20120;-73
2022/07/27 03:44:05;;;;;;;17.35;8.50;;;;;;;;;;5033099;28;20037;-72
2022/07/27 03:46:31;;;;;;;17.40;9.10;;;;;;;;;;5033015;28;20056;-72
2022/07/27 03:48:57;;;;;;;13.35;8.57;;;;;;;;;;5033155;28;20503;-75
2022/07/27 03:51:23;;;;;;;14.98;8.57;;;;;;;;;;5032958;28;20053;-70
2022/07/27 03:53:49;;;;;;;20.75;10.35;;;;;;;;;;5032812;28;20033;-73
2022/07/27 03:56:15;;;;;;;23.85;9.13;;;;;;;;;;5033041;28;20033;-70
2022/07/27 03:58:41;;;;;;;12.63;8.27;;;;;;;;;;5048823;28;20171;-75
2022/07/27 04:01:07;;;;;;;16.00;8.88;;;;;;;;;;5045763;28;20044;-76
2022/07/27 04:03:33;;;;;;;16.77;8.30;;;;;;;;;;5032369;28;20041;-75
2022/07/27 04:05:59;;;;;;;18.10;9.73;;;;;;;;;;5035194;28;20039;-73
2022/07/27 04:08:25;;;;;;;21.63;10.18;;;;;;;;;;5032734;28;20025;-75
2022/07/27 04:10:51;;;;;;;17.42;9.88;;;;;;;;;;5032855;28;20083;-73
2022/07/27 04:13:20;;;;;;;15.52;9.85;;;;;;;;;;5032505;28;20037;-73
2022/07/27 04:15:47;;;;;;;20.30;9.07;;;;;;;;;;5035274;28;20029;-74
2022/07/27 04:18:14;;;;;;;22.98;8.88;;;;;;;;;;5043037;28;20028;-70
2022/07/27 04:20:40;;;;;;;14.07;7.97;;;;;;;;;;5043777;28;20560;-73
2022/07/27 04:23:07;;;;;;;16.92;8.68;;;;;;;;;;5040456;28;20025;-73
2022/07/27 04:25:33;;;;;;;14.32;8.63;;;;;;;;;;5033404;28;20029;-74
2022/07/27 04:27:59;;;;;;;13.45;7.72;;;;;;;;;;5041665;28;20045;-75
2022/07/27 04:30:25;;;;;;;19.17;8.10;;;;;;;;;;5059985;28;20037;-77
2022/07/27 04:32:51;;;;;;;15.60;8.02;;;;;;;;;;5060588;28;20040;-76
2022/07/27 04:35:17;;;;;;;18.10;7.57;;;;;;;;;;5052556;28;20447;-80
2022/07/27 04:37:43;;;;;;;14.70;6.80;;;;;;;;;;5052440;28;20052;-77
2022/07/27 04:40:10;;;;;;;15.80;7.20;;;;;;;;;;5052477;28;20584;-75
2022/07/27 04:42:36;;;;;;;10.27;5.60;;;;;;;;;;5057397;28;20400;-74
2022/07/27 04:45:02;;;;;;;12.32;6.10;;;;;;;;;;5069634;28;20033;-76
2022/07/27 04:47:28;;;;;;;12.65;5.72;;;;;;;;;;5072117;28;20036;-78
2022/07/27 04:49:55;;;;;;;9.77;5.00;;;;;;;;;;5068117;28;20033;-79
2022/07/27 04:52:21;;;;;;;13.68;5.68;;;;;;;;;;5072773;28;20051;-79
2022/07/27 04:54:53;;;;;;;9.55;5.85;;;;;;;;;;5073729;28;20040;-79
2022/07/27 04:57:19;;;;;;;10.03;5.93;;;;;;;;;;5069602;28;20491;-78
2022/07/27 04:59:46;;;;;;;8.73;5.50;;;;;;;;;;5056384;28;20628;-79
2022/07/27 05:02:12;;;;;;;7.18;5.55;;;;;;;;;;5054377;28;20033;-80
2022/07/27 05:04:38;;;;;;;11.23;5.72;;;;;;;;;;5055898;28;20381;-79
2022/07/27 05:07:04;;;;;;;11.90;6.18;;;;;;;;;;5057936;28;20052;-80
2022/07/27 05:09:30;;;;;;;11.95;5.88;;;;;;;;;;5058200;28;20060;-80
2022/07/27 05:11:56;;;;;;;9.43;6.20;;;;;;;;;;5058264;28;20041;-82
2022/07/27 05:14:22;;;;;;;15.85;7.22;;;;;;;;;;5057272;28;20107;-81
2022/07/27 05:16:49;;;;;;;10.95;6.35;;;;;;;;;;5057772;28;20041;-82
2022/07/27 05:19:15;;;;;;;14.10;6.30;;;;;;;;;;5057393;28;20025;-83
2022/07/27 05:21:41;;;;;;;8.93;5.70;;;;;;;;;;5057248;28;20120;-73
2022/07/27 05:24:07;;;;;;;13.00;6.15;;;;;;;;;;5055842;28;20017;-74
2022/07/27 05:26:35;;;;;;;10.80;5.78;;;;;;;;;;5056180;28;20036;-83
2022/07/27 05:29:01;;;;;;;13.10;6.38;;;;;;;;;;5056196;28;20440;-77
2022/07/27 05:31:27;;;;;;;13.25;5.88;;;;;;;;;;5056165;28;20056;-77
2022/07/27 05:33:53;;;;;;;12.60;5.68;;;;;;;;;;5055770;28;20036;-79
2022/07/27 05:36:19;;;;;;;16.67;6.18;;;;;;;;;;5055275;28;20032;-80
2022/07/27 05:38:45;;;;;;;8.98;5.53;;;;;;;;;;5056766;28;20032;-83
2022/07/27 05:41:12;;;;;;;11.00;5.80;;;;;;;;;;5056653;28;20399;-84
2022/07/27 05:43:38;;;;;;;8.25;5.93;;;;;;;;;;5055655;28;20484;-84
2022/07/27 05:46:04;;;;;;;9.05;6.18;;;;;;;;;;5055831;28;20640;-87
2022/07/27 05:48:30;;;;;;;11.18;5.93;;;;;;;;;;5072710;28;20051;-85
2022/07/27 05:50:56;;;;;;;11.63;6.38;;;;;;;;;;5075272;28;20037;-83
2022/07/27 05:53:22;;;;;;;12.90;6.10;;;;;;;;;;5074765;28;20130;-77
2022/07/27 05:55:49;;;;;;;15.50;6.57;;;;;;;;;;5075184;28;20452;-79
2022/07/27 05:58:15;;;;;;;18.50;6.35;;;;;;;;;;5075266;28;20024;-80
2022/07/27 06:00:41;;;;;;;11.70;5.97;;;;;;;;;;5074643;28;20098;-82
2022/07/27 06:03:07;;;;;;;13.63;6.60;;;;;;;;;;5072662;28;20398;-75
2022/07/27 06:05:33;;;;;;;16.15;6.75;;;;;;;;;;5073926;28;20112;-79
2022/07/27 06:07:59;;;;;;;11.95;6.40;;;;;;;;;;5073859;28;20043;-80
2022/07/27 06:10:31;;;;;;;14.25;6.35;;;;;;;;;;5071180;28;20439;-78
2022/07/27 06:12:57;;;;;;;11.70;6.37;;;;;;;;;;5074069;28;20114;-80
2022/07/27 06:15:23;;;;;;;17.42;7.10;;;;;;;;;;5073589;28;20041;-75
2022/07/27 06:17:52;;;;;;;11.57;6.60;;;;;;;;;;5070203;28;20067;-78
2022/07/27 06:20:21;;;;;;;10.07;6.43;;;;;;;;;;5072581;28;20029;-76
2022/07/27 06:22:53;;;;;;;11.35;6.80;;;;;;;;;;5072470;28;20153;-76
2022/07/27 06:25:20;;;;;;;12.38;6.45;;;;;;;;;;5072271;28;20115;-78
2022/07/27 06:27:46;;;;;;;9.98;6.15;;;;;;;;;;5072748;28;20040;-80
2022/07/27 06:30:17;;;;;;;10.55;6.05;;;;;;;;;;5071460;28;20041;-75
2022/07/27 06:32:43;;;;;;;9.95;6.20;;;;;;;;;;5064959;28;20032;-78
2022/07/27 06:35:10;;;;;;;14.63;6.63;;;;;;;;;;5072673;28;20043;-70
2022/07/27 06:37:36;;;;;;;7.57;6.10;;;;;;;;;;5072667;28;20379;-80
2022/07/27 06:40:04;;;;;;;14.27;7.38;;;;;;;;;;5073253;28;20032;-81
2022/07/27 06:42:30;;;;;;;11.80;6.43;;;;;;;;;;5072360;28;20043;-74
2022/07/27 06:44:56;;;;;;;12.23;6.43;;;;;;;;;;5072598;28;20086;-78
2022/07/27 06:47:22;;;;;;;10.48;6.50;;;;;;;;;;5072366;28;20036;-76
2022/07/27 06:49:48;;;;;;;9.52;6.72;;;;;;;;;;5070964;28;20032;-76
2022/07/27 06:52:14;;;;;;;13.10;7.28;;;;;;;;;;5057455;28;20058;-79
2022/07/27 06:54:40;;;;;;;8.80;6.63;;;;;;;;;;5072455;28;20040;-75
2022/07/27 06:57:06;;;;;;;7.65;6.00;;;;;;;;;;5072366;28;20112;-81
2022/07/27 06:59:33;;;;;;;11.07;6.45;;;;;;;;;;5071896;28;20411;-82
2022/07/27 07:01:59;;;;;;;9.15;6.50;;;;;;;;;;5071911;28;20040;-81
2022/07/27 07:04:25;;;;;;;11.80;6.70;;;;;;;;;;5060210;28;20040;-81
2022/07/27 07:06:52;;;;;;;7.03;6.18;;;;;;;;;;5056548;28;20382;-78
2022/07/27 07:09:18;;;;;;;10.75;7.10;;;;;;;;;;5063105;28;20033;-77
2022/07/27 07:11:44;;;;;;;10.63;7.30;;;;;;;;;;5063259;28;20052;-80
2022/07/27 07:14:10;;;;;;;13.23;7.22;;;;;;;;;;5051016;28;20114;-73
2022/07/27 07:16:36;;;;;;;13.73;7.20;;;;;;;;;;5066634;28;20040;-74
2022/07/27 07:19:02;;;;;;;9.93;6.47;;;;;;;;;;5071811;28;20041;-70
2022/07/27 07:21:28;;;;;;;10.80;6.90;;;;;;;;;;5070982;28;20502;-75
2022/07/27 07:23:54;;;;;;;13.13;6.95;;;;;;;;;;5061559;28;20031;-73
2022/07/27 07:26:20;;;;;;;13.13;7.30;;;;;;;;;;5060346;28;20032;-75
2022/07/27 07:28:46;;;;;;;9.02;7.10;;;;;;;;;;5063360;28;20060;-73
2022/07/27 07:31:12;;;;;;;14.07;6.88;;;;;;;;;;5071250;28;20044;-74
2022/07/27 07:33:38;;;;;;;9.85;6.65;;;;;;;;;;5069645;28;20033;-79
2022/07/27 07:36:04;;;;;;;12.18;7.03;;;;;;;;;;5071109;28;20081;-70
2022/07/27 07:38:30;;;;;;;9.18;7.05;;;;;;;;;;5068956;28;20039;-79
2022/07/27 07:40:56;;;;;;;10.95;6.25;;;;;;;;;;5064959;28;20100;-77
2022/07/27 07:43:22;;;;;;;14.25;9.30;;;;;;;;;;5052627;28;20041;-80
2022/07/27 07:45:48;;;;;;;15.80;7.43;;;;;;;;;;5068045;28;20032;-78
2022/07/27 07:48:14;;;;;;;12.75;7.40;;;;;;;;;;5051888;28;20035;-83
2022/07/27 07:50:40;;;;;;;8.25;6.80;;;;;;;;;;5069569;28;20112;-78
2022/07/27 07:53:06;;;;;;;10.80;6.22;;;;;;;;;;5071736;28;20128;-75
2022/07/27 07:55:32;;;;;;;7.13;6.32;;;;;;;;;;5072459;28;20029;-78
2022/07/27 07:57:58;;;;;;;13.60;6.60;;;;;;;;;;5072409;28;20093;-76
2022/07/27 08:00:25;;;;;;;10.23;6.20;;;;;;;;;;5072184;28;20075;-78
2022/07/27 08:02:53;;;;;;;10.40;6.22;;;;;;;;;;5070706;28;20044;-74
2022/07/27 08:05:20;;;;;;;9.00;6.40;;;;;;;;;;5072392;28;20552;-75
2022/07/27 08:07:47;;;;;;;9.20;6.85;;;;;;;;;;5072023;28;20024;-76
2022/07/27 08:10:14;;;;;;;9.45;6.47;;;;;;;;;;5072502;28;20033;-76
2022/07/27 08:12:43;;;;;;;7.45;5.90;;;;;;;;;;5072619;28;20040;-75
2022/07/27 08:15:11;;;;;;;8.65;6.20;;;;;;;;;;5072086;28;20161;-74
2022/07/27 08:17:37;;;;;;;7.55;6.13;;;;;;;;;;5072508;28;20037;-77
2022/07/27 08:20:05;;;;;;;12.98;6.75;;;;;;;;;;5072001;28;20383;-77
2022/07/27 08:22:31;;;;;;;7.47;6.25;;;;;;;;;;5073450;28;20379;-77
2022/07/27 08:24:57;;;;;;;8.55;6.75;;;;;;;;;;5075606;28;20040;-79
2022/07/27 08:27:23;;;;;;;8.27;6.60;;;;;;;;;;5075473;28;20055;-79
2022/07/27 08:29:49;;;;;;;10.30;6.60;;;;;;;;;;5075799;28;20753;-78
2022/07/27 08:32:15;;;;;;;8.82;6.10;;;;;;;;;;5075745;28;20434;-75
2022/07/27 08:34:41;;;;;;;7.53;6.70;;;;;;;;;;5076344;28;20047;-78
2022/07/27 08:37:07;;;;;;;12.48;6.93;;;;;;;;;;5075989;28;20107;-77
2022/07/27 08:39:33;;;;;;;10.02;7.20;;;;;;;;;;5073046;28;20383;-76
2022/07/27 08:42:04;;;;;;;8.25;6.20;;;;;;;;;;5074326;28;20075;-79
2022/07/27 08:44:31;;;;;;;8.85;6.50;;;;;;;;;;5063073;28;20039;-81
2022/07/27 08:47:00;;;;;;;12.73;6.97;;;;;;;;;;5056048;28;20102;-78
2022/07/27 08:49:29;;;;;;;10.18;6.45;;;;;;;;;;5064141;28;20066;-82
2022/07/27 08:51:56;;;;;;;10.73;7.50;;;;;;;;;;5075043;28;20064;-77
2022/07/27 08:54:24;;;;;;;16.52;7.88;;;;;;;;;;5074681;28;20033;-78
2022/07/27 08:56:51;;;;;;;12.00;7.65;;;;;;;;;;5074402;28;20036;-79
2022/07/27 08:59:17;;;;;;;16.25;6.97;;;;;;;;;;5073873;28;20033;-76
2022/07/27 09:01:43;;;;;;;7.75;6.75;;;;;;;;;;5070814;28;20029;-76
2022/07/27 09:04:09;;;;;;;10.60;7.50;;;;;;;;;;5074079;28;20501;-74
2022/07/27 09:06:49;;;;;;;11.60;7.10;;;;;;;;;;5073895;28;20167;-73
2022/07/27 09:09:17;;;;;;;9.30;6.85;;;;;;;;;;5073098;28;20029;-82
2022/07/27 09:12:01;;;;;;;11.73;6.75;;;;;;;;;;5074030;28;20506;-76
2022/07/27 09:14:31;;;;;;;8.27;6.65;;;;;;;;;;5073679;28;20033;-77
2022/07/27 09:16:57;;;;;;;8.43;7.05;;;;;;;;;;5073607;28;20040;-75
2022/07/27 09:19:23;;;;;;;14.18;7.35;;;;;;;;;;5074136;28;20040;-77
2022/07/27 09:21:49;;;;;;;11.32;7.05;;;;;;;;;;5073718;28;20049;-77
2022/07/27 09:24:15;;;;;;;10.18;6.72;;;;;;;;;;5073855;28;20415;-81
2022/07/27 09:26:42;;;;;;;12.75;7.28;;;;;;;;;;5074432;28;20111;-73
2022/07/27 09:29:11;;;;;;;8.10;7.30;;;;;;;;;;5074559;28;20095;-77
2022/07/27 09:31:44;;;;;;;10.38;6.90;;;;;;;;;;5060968;28;20123;-82
2022/07/27 09:34:11;;;;;;;9.18;6.95;;;;;;;;;;5054343;28;20040;-76
2022/07/27 09:36:54;;;;;;;9.63;7.40;;;;;;;;;;5073410;28;20024;-77
2022/07/27 09:39:22;;;;;;;12.43;6.82;;;;;;;;;;5073166;28;20043;-75
2022/07/27 09:41:50;;;;;;;10.32;7.20;;;;;;;;;;5072412;28;20036;-75
2022/07/27 09:44:17;;;;;;;9.98;7.10;;;;;;;;;;5071874;28;20047;-74
2022/07/27 09:46:45;;;;;;;10.48;7.20;;;;;;;;;;5071339;28;20024;-78
2022/07/27 09:49:38;;;;;;;9.82;7.00;;;;;;;;;;5073147;28;20067;-78
2022/07/27 09:52:04;;;;;;;8.88;7.43;;;;;;;;;;5071047;28;20479;-79
2022/07/27 09:54:45;;;;;;;9.10;7.38;;;;;;;;;;5073012;28;20045;-72
2022/07/27 09:57:11;;;;;;;8.45;7.55;;;;;;;;;;5073123;28;20036;-77
2022/07/27 09:59:37;;;;;;;9.80;7.03;;;;;;;;;;5072763;28;20158;-76
2022/07/27 10:02:04;;;;;;;7.50;6.57;;;;;;;;;;5072660;28;20117;-74
2022/07/27 10:04:32;;;;;;;9.23;7.00;;;;;;;;;;5072827;28;20140;-76
2022/07/27 10:07:00;;;;;;;10.98;7.47;;;;;;;;;;5072402;28;20043;-78
2022/07/27 10:09:28;;;;;;;8.80;7.13;;;;;;;;;;5073856;28;20070;-72
2022/07/27 10:11:56;;;;;;;8.20;7.40;;;;;;;;;;5073195;28;20068;-72
2022/07/27 10:14:22;;;;;;;10.63;7.35;;;;;;;;;;5071898;28;20024;-78
2022/07/27 10:16:49;;;;;;;13.23;8.35;;;;;;;;;;5072852;28;20131;-72
2022/07/27 10:19:20;;;;;;;8.25;7.45;;;;;;;;;;5072416;28;20440;-77
2022/07/27 10:21:47;;;;;;;8.45;7.50;;;;;;;;;;5072495;28;20075;-74
2022/07/27 10:24:30;;;;;;;13.75;7.57;;;;;;;;;;5072518;28;20537;-77
2022/07/27 10:26:56;;;;;;;9.70;7.40;;;;;;;;;;5072114;28;20090;-73
2022/07/27 10:29:24;;;;;;;8.82;7.28;;;;;;;;;;5067777;28;20041;-75
2022/07/27 10:31:53;;;;;;;9.85;7.20;;;;;;;;;;5071956;28;20410;-69
2022/07/27 10:34:41;;;;;;;11.35;8.57;;;;;;;;;;5071914;28;20376;-72
2022/07/27 10:37:08;;;;;;;11.40;8.25;;;;;;;;;;5071952;28;20036;-71
2022/07/27 10:39:41;;;;;;;10.25;7.80;;;;;;;;;;5069522;28;20029;-72
2022/07/27 10:42:21;;;;;;;8.32;7.00;;;;;;;;;;5061145;28;20033;-72
2022/07/27 10:45:01;;;;;;;10.43;7.97;;;;;;;;;;5049981;28;20106;-77
2022/07/27 10:47:32;;;;;;;9.40;7.82;;;;;;;;;;5050868;28;20056;-76
2022/07/27 10:50:16;;;;;;;14.10;7.72;;;;;;;;;;5051486;28;20037;-74
2022/07/27 10:52:54;;;;;;;9.52;7.30;;;;;;;;;;5068386;28;20036;-76
2022/07/27 10:55:30;;;;;;;9.40;7.13;;;;;;;;;;5071945;28;20047;-73
2022/07/27 10:57:57;;;;;;;8.48;7.43;;;;;;;;;;5072178;28;20032;-75
2022/07/27 11:00:50;;;;;;;11.98;8.80;;;;;;;;;;5071752;28;20134;-74
2022/07/27 11:03:23;;;;;;;20.08;14.73;;;;;;;;;;5071730;28;20131;-72
2022/07/27 11:06:06;;;;;;;10.50;7.32;;;;;;;;;;5071609;28;20028;-75
2022/07/27 11:08:34;;;;;;;8.52;7.28;;;;;;;;;;5071777;28;20395;-77
2022/07/27 11:11:01;;;;;;;9.45;6.95;;;;;;;;;;5064798;28;20033;-76
2022/07/27 11:13:29;;;;;;;11.00;8.80;;;;;;;;;;5050766;28;20139;-78
2022/07/27 11:15:58;;;;;;;7.72;7.03;;;;;;;;;;5051492;28;20033;-72
2022/07/27 11:18:35;;;;;;;11.95;7.65;;;;;;;;;;5051104;28;20057;-74
2022/07/27 11:21:21;;;;;;;8.35;6.90;;;;;;;;;;5051990;28;20444;-76
2022/07/27 11:23:54;;;;;;;8.85;7.10;;;;;;;;;;5051881;28;20499;-73
2022/07/27 11:26:22;;;;;;;10.40;7.40;;;;;;;;;;5051837;28;20037;-74
2022/07/27 11:28:49;;;;;;;9.77;7.38;;;;;;;;;;5051137;28;20033;-73
2022/07/27 11:31:16;;;;;;;8.63;6.47;;;;;;;;;;5051399;28;20045;-74
2022/07/27 11:33:51;;;;;;;10.80;7.15;;;;;;;;;;5052008;28;20033;-73
2022/07/27 11:36:20;;;;;;;9.30;7.00;;;;;;;;;;5052322;28;20080;-74
2022/07/27 11:38:47;;;;;;;11.45;9.60;;;;;;;;;;5052625;28;20083;-76
2022/07/27 11:41:40;;;;;;;12.57;7.45;;;;;;;;;;5051194;28;20037;-73
2022/07/27 11:44:16;;;;;;;11.10;7.57;;;;;;;;;;5048985;28;20480;-73
2022/07/27 11:46:44;;;;;;;18.42;7.97;;;;;;;;;;5052695;28;20064;-76
2022/07/27 11:49:15;;;;;;;9.52;7.57;;;;;;;;;;5052424;28;20124;-77
2022/07/27 11:51:46;;;;;;;12.52;7.32;;;;;;;;;;5052531;28;20064;-77
2022/07/27 11:54:19;;;;;;;9.60;8.18;;;;;;;;;;5052482;28;20086;-75
2022/07/27 11:56:49;;;;;;;11.73;7.55;;;;;;;;;;5051676;28;20075;-72
2022/07/27 11:59:17;;;;;;;10.13;7.60;;;;;;;;;;5052739;28;20380;-72
2022/07/27 12:01:47;;;;;;;9.82;8.15;;;;;;;;;;5052297;28;20044;-75
2022/07/27 12:04:23;;;;;;;8.40;7.60;;;;;;;;;;5052030;28;20021;-74
2022/07/27 12:07:08;;;;;;;10.52;8.90;;;;;;;;;;5052112;28;20108;-74
2022/07/27 12:09:38;;;;;;;10.02;8.32;;;;;;;;;;5052478;28;20468;-74
2022/07/27 12:12:08;;;;;;;12.35;7.75;;;;;;;;;;5052483;28;20060;-76
2022/07/27 12:14:36;;;;;;;10.55;7.85;;;;;;;;;;5052380;28;20116;-74
2022/07/27 12:17:35;;;;;;;11.95;7.97;;;;;;;;;;5052452;28;20029;-75
2022/07/27 12:20:07;;;;;;;10.68;8.38;;;;;;;;;;5052250;28;20103;-74
2022/07/27 12:22:38;;;;;;;9.32;7.78;;;;;;;;;;5051853;28;20480;-73
2022/07/27 12:25:24;;;;;;;12.45;8.25;;;;;;;;;;5052200;28;20124;-76
2022/07/27 12:28:03;;;;;;;9.82;8.00;;;;;;;;;;5052196;28;20033;-73
2022/07/27 12:30:36;;;;;;;9.10;8.20;;;;;;;;;;5051706;28;20484;-74
2022/07/27 12:33:23;;;;;;;8.50;7.65;;;;;;;;;;5051935;28;20452;-76
2022/07/27 12:35:49;;;;;;;9.23;7.72;;;;;;;;;;5052216;28;20026;-76
2022/07/27 12:38:15;;;;;;;8.50;7.70;;;;;;;;;;5050570;28;20146;-73
2022/07/27 12:40:54;;;;;;;9.35;8.43;;;;;;;;;;5067519;28;20089;-77
2022/07/27 12:43:25;;;;;;;8.38;7.45;;;;;;;;;;5071312;28;20032;-74
2022/07/27 12:45:53;;;;;;;8.73;7.93;;;;;;;;;;5071287;28;20378;-74
2022/07/27 12:48:36;;;;;;;8.90;7.90;;;;;;;;;;5071842;28;20103;-74
2022/07/27 12:51:07;;;;;;;12.00;7.97;;;;;;;;;;5071940;28;20048;-74
2022/07/27 12:53:35;;;;;;;8.82;7.90;;;;;;;;;;5071707;28;20440;-73
2022/07/27 12:56:07;;;;;;;11.40;7.90;;;;;;;;;;5071647;28;20056;-72
2022/07/27 12:58:34;;;;;;;8.53;7.73;;;;;;;;;;5070824;28;20021;-74
2022/07/27 13:01:00;;;;;;;9.00;7.45;;;;;;;;;;5071448;28;20501;-71
2022/07/27 13:03:26;;;;;;;9.25;7.68;;;;;;;;;;5071208;28;20036;-73
2022/07/27 13:05:52;;;;;;;11.20;8.25;;;;;;;;;;5071518;28;20121;-73
2022/07/27 13:08:18;;;;;;;8.70;7.80;;;;;;;;;;5072612;28;20064;-74
2022/07/27 13:10:44;;;;;;;9.93;8.13;;;;;;;;;;5074537;28;20025;-75
2022/07/27 13:13:11;;;;;;;10.45;8.30;;;;;;;;;;5074946;28;20527;-73
2022/07/27 13:15:37;;;;;;;8.63;7.43;;;;;;;;;;5075053;28;20119;-74
2022/07/27 13:18:03;;;;;;;9.95;7.60;;;;;;;;;;5074920;28;20029;-75
2022/07/27 13:20:30;;;;;;;9.38;7.95;;;;;;;;;;5074757;28;20033;-84
2022/07/27 13:22:56;;;;;;;9.45;8.32;;;;;;;;;;5074340;28;20047;-81
2022/07/27 13:25:22;;;;;;;11.02;8.07;;;;;;;;;;5074974;28;20170;-76
2022/07/27 13:27:48;;;;;;;9.77;7.95;;;;;;;;;;5075131;28;20060;-78
2022/07/27 13:30:16;;;;;;;8.90;7.82;;;;;;;;;;5074439;28;20123;-74
2022/07/27 13:32:45;;;;;;;8.25;7.05;;;;;;;;;;5074575;28;20032;-77
2022/07/27 13:35:11;;;;;;;9.18;7.53;;;;;;;;;;5074133;28;20461;-82
2022/07/27 13:37:38;;;;;;;10.38;8.32;;;;;;;;;;5074507;28;20111;-78
2022/07/27 13:40:05;;;;;;;8.77;7.88;;;;;;;;;;5074584;28;20043;-77
2022/07/27 13:42:31;;;;;;;14.27;8.45;;;;;;;;;;5071527;28;20382;-77
2022/07/27 13:45:00;;;;;;;7.93;7.10;;;;;;;;;;5053328;28;20025;-75
2022/07/27 13:47:27;;;;;;;7.85;7.15;;;;;;;;;;5053484;28;20036;-80
2022/07/27 13:49:54;;;;;;;8.90;7.53;;;;;;;;;;5054234;28;20112;-77
2022/07/27 13:52:20;;;;;;;8.10;7.38;;;;;;;;;;5054741;28;20032;-76
2022/07/27 13:54:46;;;;;;;8.73;7.82;;;;;;;;;;5054407;28;20395;-81
2022/07/27 13:57:12;;;;;;;9.70;7.05;;;;;;;;;;5054591;28;20534;-79
2022/07/27 13:59:38;;;;;;;8.20;7.40;;;;;;;;;;5054210;28;20029;-81
2022/07/27 14:02:04;;;;;;;7.50;6.80;;;;;;;;;;5053859;28;20112;-78
2022/07/27 14:04:31;;;;;;;10.05;7.28;;;;;;;;;;5054400;28;20044;-76
2022/07/27 14:06:57;;;;;;;9.75;7.80;;;;;;;;;;5054166;28;20602;-74
2022/07/27 14:10:30;;;;;;;10.30;7.93;;;;;;;;;;5054137;28;20129;-77
2022/07/27 14:12:08;;;;;;;8.75;7.28;;;;;;;;;;5054098;28;20037;-75
2022/07/27 14:14:34;;;;;;;9.73;7.82;;;;;;;;;;5053875;28;20059;-72
2022/07/27 14:17:00;;;;;;;8.68;7.78;;;;;;;;;;5053943;28;20112;-73
2022/07/27 14:19:28;;;;;;;8.60;7.70;;;;;;;;;;5053368;28;20029;-73
2022/07/27 14:21:55;;;;;;;7.60;6.90;;;;;;;;;;5053383;28;20472;-76
2022/07/27 14:24:21;;;;;;;9.07;7.65;;;;;;;;;;5053836;28;20033;-74
2022/07/27 14:26:47;;;;;;;7.95;7.15;;;;;;;;;;5053834;28;20051;-77
2022/07/27 14:29:13;;;;;;;9.68;7.25;;;;;;;;;;5054068;28;20054;-75
2022/07/27 14:31:38;;;;;;;10.15;8.05;;;;;;;;;;5053899;28;20102;-73
2022/07/27 14:34:04;;;;;;;8.93;7.47;;;;;;;;;;5053948;28;20037;-77
2022/07/27 14:36:30;;;;;;;8.95;7.47;;;;;;;;;;5054070;28;20037;-80
2022/07/27 14:38:56;;;;;;;8.60;7.70;;;;;;;;;;5054037;28;20059;-76
2022/07/27 14:41:22;;;;;;;8.52;7.63;;;;;;;;;;5054062;28;20033;-73
2022/07/27 14:43:48;;;;;;;8.60;7.80;;;;;;;;;;5053579;28;20064;-73
2022/07/27 14:46:14;;;;;;;10.20;7.65;;;;;;;;;;5053451;28;20043;-77